createdAt,value
2023-04-17T07:20:02.734Z,101548.50
2023-04-17T07:22:29.276Z,101548.72
2023-04-17T07:24:55.961Z,101542.34
2023-04-17T07:27:22.447Z,101547.16
2023-04-17T07:29:54.635Z,101545.06
2023-04-17T07:32:22.338Z,101543.81
2023-04-17T07:34:48.906Z,101544.06
2023-04-17T07:37:15.904Z,101550.31
2023-04-17T07:39:42.944Z,101547.59
2023-04-17T07:42:10.836Z,101546.53
2023-04-17T07:44:39.148Z,101552.75
2023-04-17T07:47:05.846Z,101544.22
2023-04-17T07:49:32.591Z,101558.09
2023-04-17T07:51:59.193Z,101553.09
2023-04-17T07:54:25.778Z,101551.34
2023-04-17T07:56:52.400Z,101552.38
2023-04-17T07:59:18.877Z,101557.06
2023-04-17T08:01:45.524Z,101555.88
2023-04-17T08:04:12.455Z,101560.81
2023-04-17T08:06:39.260Z,101557.44
2023-04-17T08:09:05.754Z,101557.63
2023-04-17T08:11:35.778Z,101548.13
2023-04-17T08:14:11.391Z,101551.19
2023-04-17T08:16:38.028Z,101549.88
2023-04-17T08:19:04.636Z,101556.69
2023-04-17T08:21:31.760Z,101550.66
2023-04-17T08:23:58.452Z,101551.53
2023-04-17T08:26:24.921Z,101557.34
2023-04-17T08:28:53.705Z,101557.59
2023-04-17T08:31:20.576Z,101554.63
2023-04-17T08:33:47.155Z,101560.56
2023-04-17T08:36:16.156Z,101564.44
2023-04-17T08:38:45.177Z,101553.28
2023-04-17T08:41:18.212Z,101565.47
2023-04-17T08:43:48.833Z,101562.09
2023-04-17T08:46:15.970Z,101562.84
2023-04-17T08:48:42.883Z,101563.63
2023-04-17T08:51:09.470Z,101562.94
2023-04-17T08:53:35.999Z,101570.34
2023-04-17T08:56:08.988Z,101572.59
2023-04-17T08:58:36.993Z,101569.94
2023-04-17T09:01:17.700Z,101564.94
2023-04-17T09:03:47.131Z,101568.97
2023-04-17T09:06:15.573Z,101574.63
2023-04-17T09:09:04.092Z,101571.78
2023-04-17T09:11:30.781Z,101575.59
2023-04-17T09:13:57.404Z,101578.72
2023-04-17T09:16:25.891Z,101577.78
2023-04-17T09:19:05.310Z,101575.53
2023-04-17T09:21:31.865Z,101580.72
2023-04-17T09:23:59.620Z,101571.06
2023-04-17T09:26:26.989Z,101578.31
2023-04-17T09:29:03.905Z,101571.84
2023-04-17T09:31:32.362Z,101577.28
2023-04-17T09:34:07.724Z,101581.25
2023-04-17T09:36:39.092Z,101571.84
2023-04-17T09:39:18.120Z,101561.56
2023-04-17T09:41:44.802Z,101568.78
2023-04-17T09:44:12.688Z,101560.50
2023-04-17T09:46:46.146Z,101567.47
2023-04-17T09:49:15.897Z,101564.97
2023-04-17T09:51:42.826Z,101570.88
2023-04-17T09:54:11.954Z,101568.59
2023-04-17T09:56:39.998Z,101566.59
2023-04-17T09:59:07.266Z,101578.63
2023-04-17T10:01:35.438Z,101576.97
2023-04-17T10:04:03.855Z,101574.50
2023-04-17T10:06:32.249Z,101577.47
2023-04-17T10:08:58.903Z,101569.53
2023-04-17T10:11:30.840Z,101570.38
2023-04-17T10:14:13.909Z,101575.31
2023-04-17T10:16:44.720Z,101570.84
2023-04-17T10:19:32.385Z,101561.56
2023-04-17T10:22:20.323Z,101569.03
2023-04-17T10:24:49.507Z,101563.22
2023-04-17T10:27:25.173Z,101560.72
2023-04-17T10:30:02.400Z,101569.69
2023-04-17T10:32:30.132Z,101562.69
2023-04-17T10:34:59.264Z,101567.41
2023-04-17T10:38:02.395Z,101565.22
2023-04-17T10:40:36.351Z,101567.75
2023-04-17T10:43:04.499Z,101557.59
2023-04-17T10:45:52.673Z,101551.03
2023-04-17T10:48:27.216Z,101554.63
2023-04-17T10:50:55.380Z,101552.50
2023-04-17T10:53:40.511Z,101552.19
2023-04-17T10:56:08.300Z,101550.69
2023-04-17T10:58:38.685Z,101546.75
2023-04-17T11:01:10.780Z,101543.53
2023-04-17T11:03:38.811Z,101541.63
2023-04-17T11:06:06.414Z,101543.28
2023-04-17T11:08:33.014Z,101546.63
2023-04-17T11:10:59.557Z,101542.84
2023-04-17T11:13:26.180Z,101562.47
2023-04-17T11:15:52.810Z,101554.56
2023-04-17T11:18:21.637Z,101555.13
2023-04-17T11:20:50.007Z,101550.38
2023-04-17T11:23:17.080Z,101555.03
2023-04-17T11:25:44.331Z,101558.22
2023-04-17T11:28:11.725Z,101565.56
2023-04-17T11:30:45.174Z,101551.59
2023-04-17T11:33:16.182Z,101549.38
2023-04-17T11:35:43.181Z,101558.59
2023-04-17T11:38:23.243Z,101554.19
2023-04-17T11:40:54.946Z,101549.13
2023-04-17T11:43:23.121Z,101548.88
2023-04-17T11:45:54.966Z,101550.38
2023-04-17T11:48:24.783Z,101551.19
2023-04-17T11:50:56.029Z,101553.50
2023-04-17T11:53:22.681Z,101544.94
2023-04-17T11:55:50.170Z,101552.31
2023-04-17T11:58:16.734Z,101543.66
2023-04-17T12:00:43.709Z,101548.03
2023-04-17T12:03:37.221Z,101542.38
2023-04-17T12:06:06.551Z,101546.47
2023-04-17T12:08:55.808Z,101544.50
2023-04-17T12:11:22.482Z,101542.19
2023-04-17T12:13:49.057Z,101542.19
2023-04-17T12:16:15.711Z,101541.13
2023-04-17T12:18:42.328Z,101530.81
2023-04-17T12:21:08.882Z,101534.69
2023-04-17T12:23:35.452Z,101526.03
2023-04-17T12:26:02.083Z,101520.09
2023-04-17T12:28:28.696Z,101524.56
2023-04-17T12:30:55.390Z,101525.22
2023-04-17T12:33:22.055Z,101514.94
2023-04-17T12:35:49.221Z,101514.06
2023-04-17T12:38:16.109Z,101510.97
2023-04-17T12:40:43.491Z,101504.34
2023-04-17T12:43:11.479Z,101511.63
2023-04-17T12:45:39.760Z,101507.38
2023-04-17T12:48:08.400Z,101502.00
2023-04-17T12:50:42.582Z,101506.94
2023-04-17T12:53:11.636Z,101504.53
2023-04-17T12:55:39.344Z,101502.63
2023-04-17T12:58:06.620Z,101500.47
2023-04-17T13:00:33.873Z,101506.75
2023-04-17T13:03:01.558Z,101495.59
2023-04-17T13:05:29.154Z,101491.47
2023-04-17T13:07:56.201Z,101496.34
2023-04-17T13:10:22.856Z,101487.59
2023-04-17T13:12:49.494Z,101489.75
2023-04-17T13:15:16.514Z,101491.91
2023-04-17T13:17:44.297Z,101492.16
2023-04-17T13:20:11.716Z,101492.41
2023-04-17T13:22:38.585Z,101490.75
2023-04-17T13:25:05.954Z,101492.94
2023-04-17T13:27:32.691Z,101492.34
2023-04-17T13:29:59.299Z,101485.25
2023-04-17T13:32:25.950Z,101484.16
2023-04-17T13:34:53.160Z,101476.06
2023-04-17T13:37:20.584Z,101472.88
2023-04-17T13:39:47.204Z,101480.38
2023-04-17T13:42:16.742Z,101480.22
2023-04-17T13:44:43.310Z,101486.31
2023-04-17T13:47:09.890Z,101466.25
2023-04-17T13:49:36.564Z,101481.66
2023-04-17T13:52:03.889Z,101474.09
2023-04-17T13:54:30.434Z,101470.94
2023-04-17T13:56:57.587Z,101455.97
2023-04-17T13:59:24.894Z,101463.94
2023-04-17T14:01:51.590Z,101456.66
2023-04-17T14:04:18.466Z,101462.44
2023-04-17T14:06:47.174Z,101457.06
2023-04-17T14:09:13.870Z,101461.78
2023-04-17T14:11:41.173Z,101455.00
2023-04-17T14:14:07.779Z,101457.53
2023-04-17T14:16:34.400Z,101447.72
2023-04-17T14:19:12.276Z,101455.66
2023-04-17T14:21:39.798Z,101452.69
2023-04-17T14:24:06.626Z,101450.19
2023-04-17T14:26:33.335Z,101446.06
2023-04-17T14:28:59.979Z,101446.34
2023-04-17T14:31:26.579Z,101448.00
2023-04-17T14:33:53.164Z,101448.56
2023-04-17T14:36:19.728Z,101440.38
2023-04-17T14:38:50.008Z,101446.44
2023-04-17T14:41:17.530Z,101436.09
2023-04-17T14:43:44.825Z,101440.50
2023-04-17T14:46:11.755Z,101435.63
2023-04-17T14:48:48.012Z,101430.75
2023-04-17T14:51:22.359Z,101429.16
2023-04-17T14:53:48.944Z,101437.38
2023-04-17T14:56:16.103Z,101423.69
2023-04-17T14:58:43.324Z,101415.53
2023-04-17T15:01:09.950Z,101422.09
2023-04-17T15:03:36.892Z,101414.50
2023-04-17T15:06:03.752Z,101418.59
2023-04-17T15:08:33.380Z,101416.41
2023-04-17T15:10:59.952Z,101421.06
2023-04-17T15:13:26.573Z,101409.03
2023-04-17T15:15:53.257Z,101412.31
2023-04-17T15:18:19.818Z,101398.91
2023-04-17T15:20:46.598Z,101402.22
2023-04-17T15:23:13.673Z,101404.69
2023-04-17T15:25:40.340Z,101409.06
2023-04-17T15:28:07.592Z,101407.38
2023-04-17T15:30:34.316Z,101407.03
2023-04-17T15:33:01.008Z,101404.56
2023-04-17T15:35:27.656Z,101413.84
2023-04-17T15:37:54.195Z,101408.63
2023-04-17T15:40:21.138Z,101402.31
2023-04-17T15:42:47.720Z,101402.84
2023-04-17T15:45:14.287Z,101403.38
2023-04-17T15:47:40.860Z,101416.47
2023-04-17T15:50:08.290Z,101410.97
2023-04-17T15:52:34.921Z,101404.41
2023-04-17T15:55:01.468Z,101408.75
2023-04-17T15:57:28.001Z,101406.00
2023-04-17T15:59:54.607Z,101402.13
2023-04-17T16:02:21.547Z,101399.06
2023-04-17T16:04:48.292Z,101394.34
2023-04-17T16:07:15.780Z,101396.75
2023-04-17T16:09:44.468Z,101404.84
2023-04-17T16:12:11.068Z,101408.88
2023-04-17T16:14:38.330Z,101399.28
2023-04-17T16:17:05.203Z,101397.34
2023-04-17T16:19:32.293Z,101403.31
2023-04-17T16:21:59.521Z,101400.25
2023-04-17T16:24:26.587Z,101405.09
2023-04-17T16:26:57.589Z,101410.19
2023-04-17T16:29:25.070Z,101405.72
2023-04-17T16:31:52.575Z,101403.47
2023-04-17T16:34:19.652Z,101411.00
2023-04-17T16:36:46.982Z,101417.75
2023-04-17T16:39:14.596Z,101413.00
2023-04-17T16:41:41.508Z,101410.75
2023-04-17T16:44:08.040Z,101412.28
2023-04-17T16:46:52.171Z,101416.19
2023-04-17T16:49:21.401Z,101408.88
2023-04-17T16:51:48.015Z,101409.44
2023-04-17T16:54:14.744Z,101412.06
2023-04-17T16:56:42.096Z,101421.16
2023-04-17T16:59:08.698Z,101410.13
2023-04-17T17:01:35.362Z,101417.91
2023-04-17T17:04:02.073Z,101413.38
2023-04-17T17:06:29.200Z,101406.94
2023-04-17T17:08:55.770Z,101412.00
2023-04-17T17:11:22.389Z,101415.09
2023-04-17T17:13:49.918Z,101416.09
2023-04-17T17:16:18.083Z,101422.53
2023-04-17T17:18:45.069Z,101426.22
2023-04-17T17:21:11.634Z,101428.88
2023-04-17T17:23:38.342Z,101431.72
2023-04-17T17:26:05.189Z,101432.91
2023-04-17T17:28:32.268Z,101442.22
2023-04-17T17:31:00.967Z,101441.56
2023-04-17T17:33:27.952Z,101438.63
2023-04-17T17:35:54.596Z,101444.72
2023-04-17T17:38:21.122Z,101445.34
2023-04-17T17:40:47.808Z,101444.13
2023-04-17T17:43:14.464Z,101451.88
2023-04-17T17:45:41.034Z,101445.88
2023-04-17T17:48:07.548Z,101450.16
2023-04-17T17:50:34.121Z,101456.19
2023-04-17T17:53:00.675Z,101457.66
2023-04-17T17:55:27.273Z,101461.19
2023-04-17T17:57:53.759Z,101460.19
2023-04-17T18:00:20.502Z,101468.03
2023-04-17T18:02:47.407Z,101467.72
2023-04-17T18:05:14.135Z,101480.63
2023-04-17T18:07:41.142Z,101481.75
2023-04-17T18:10:08.306Z,101484.63
2023-04-17T18:12:34.854Z,101494.25
2023-04-17T18:15:01.424Z,101492.09
2023-04-17T18:17:28.079Z,101495.41
2023-04-17T18:19:54.667Z,101504.78
2023-04-17T18:22:21.594Z,101509.16
2023-04-17T18:24:48.152Z,101506.25
2023-04-17T18:27:15.984Z,101509.34
2023-04-17T18:29:42.568Z,101515.50
2023-04-17T18:32:09.128Z,101521.63
2023-04-17T18:34:35.667Z,101532.97
2023-04-17T18:37:02.513Z,101534.56
2023-04-17T18:39:29.092Z,101538.44
2023-04-17T18:41:57.127Z,101548.94
2023-04-17T18:44:24.567Z,101555.06
2023-04-17T18:46:51.232Z,101553.50
2023-04-17T18:49:18.006Z,101557.41
2023-04-17T18:51:47.958Z,101559.91
2023-04-17T18:54:17.653Z,101573.31
2023-04-17T18:56:44.856Z,101568.88
2023-04-17T18:59:11.968Z,101583.28
2023-04-17T19:01:38.846Z,101586.06
2023-04-17T19:04:05.320Z,101587.75
2023-04-17T19:06:31.955Z,101583.88
2023-04-17T19:08:58.457Z,101589.94
2023-04-17T19:11:27.540Z,101594.13
2023-04-17T19:13:54.690Z,101592.53
2023-04-17T19:16:21.340Z,101597.75
2023-04-17T19:18:47.906Z,101596.81
2023-04-17T19:21:16.187Z,101589.47
2023-04-17T19:23:42.997Z,101597.38
2023-04-17T19:26:09.866Z,101592.19
2023-04-17T19:28:36.612Z,101606.72
2023-04-17T19:31:03.289Z,101598.56
2023-04-17T19:33:29.821Z,101601.78
2023-04-17T19:35:58.477Z,101601.75
2023-04-17T19:38:26.096Z,101604.66
2023-04-17T21:52:33.588Z,101634.50
2023-04-17T21:55:05.196Z,101634.28
2023-04-17T21:57:32.208Z,101636.31
2023-04-17T21:59:58.961Z,101642.72
2023-04-17T22:02:25.666Z,101630.59
2023-04-17T22:04:52.977Z,101642.97
2023-04-17T22:07:21.655Z,101634.28
2023-04-17T22:09:48.644Z,101637.13
2023-04-17T22:12:17.897Z,101631.75
2023-04-17T22:14:44.617Z,101641.69
2023-04-17T22:17:11.202Z,101625.84
2023-04-17T22:19:37.833Z,101630.19
2023-04-17T22:22:04.459Z,101637.59
2023-04-17T22:24:31.094Z,101624.34
2023-04-17T22:26:57.728Z,101627.03
2023-04-17T22:29:24.397Z,101629.91
2023-04-17T22:31:51.094Z,101623.69
2023-04-17T22:34:17.699Z,101628.25
2023-04-17T22:36:44.307Z,101640.03
2023-04-17T22:39:11.042Z,101633.81
2023-04-17T22:41:37.606Z,101636.78
2023-04-17T22:44:04.406Z,101639.66
2023-04-17T22:46:30.965Z,101631.41
2023-04-17T22:48:58.483Z,101634.28
2023-04-17T22:51:29.594Z,101636.50
2023-04-17T22:53:56.285Z,101639.41
2023-04-17T22:56:22.867Z,101640.41
2023-04-17T22:58:49.483Z,101639.59
2023-04-17T23:01:16.206Z,101642.28
2023-04-17T23:03:42.850Z,101645.63
2023-04-17T23:06:11.351Z,101640.22
2023-04-17T23:08:38.112Z,101643.31
2023-04-17T23:11:05.030Z,101651.00
2023-04-17T23:13:31.938Z,101636.72
2023-04-17T23:15:58.657Z,101639.59
2023-04-17T23:18:25.273Z,101634.88
2023-04-17T23:20:51.952Z,101642.09
2023-04-17T23:23:18.681Z,101636.25
2023-04-17T23:25:45.539Z,101641.47
2023-04-17T23:28:12.334Z,101632.75
2023-04-17T23:30:39.150Z,101635.81
2023-04-17T23:33:07.045Z,101641.03
2023-04-17T23:35:33.649Z,101634.66
2023-04-17T23:38:00.473Z,101634.78
2023-04-17T23:40:28.339Z,101644.75
2023-04-17T23:42:55.109Z,101640.19
2023-04-17T23:45:21.827Z,101637.88
2023-04-17T23:47:48.406Z,101636.44
2023-04-17T23:50:15.226Z,101645.66
2023-04-17T23:52:41.782Z,101635.16
2023-04-17T23:55:08.757Z,101639.00
2023-04-17T23:57:38.136Z,101646.81
